createdAt,value
2018-08-23T00:01:28.462Z,7.73
2018-08-23T00:04:02.687Z,8.77
2018-08-23T00:06:32.084Z,8.33
2018-08-23T00:09:01.175Z,11.20
2018-08-23T00:11:32.808Z,7.90
2018-08-23T00:14:05.724Z,9.37
2018-08-23T00:16:50.093Z,8.13
2018-08-23T00:19:19.034Z,6.93
2018-08-23T00:21:49.693Z,7.07
2018-08-23T00:24:20.960Z,8.37
2018-08-23T00:26:58.221Z,7.20
2018-08-23T00:29:28.838Z,6.97
2018-08-23T00:32:02.963Z,7.93
2018-08-23T00:34:36.835Z,6.97
2018-08-23T00:37:05.957Z,6.67
2018-08-23T00:39:34.951Z,8.33
2018-08-23T00:42:06.400Z,7.83
2018-08-23T00:44:50.528Z,8.10
2018-08-23T00:47:19.085Z,7.20
2018-08-23T00:49:47.535Z,6.93
2018-08-23T00:52:18.669Z,8.00
2018-08-23T00:54:47.284Z,10.83
2018-08-23T00:57:16.040Z,9.33
2018-08-23T00:59:50.538Z,8.00
2018-08-23T01:02:19.858Z,10.20
2018-08-23T01:04:49.268Z,8.10
2018-08-23T01:07:27.058Z,7.87
2018-08-23T01:09:57.029Z,7.73
2018-08-23T01:12:27.024Z,9.20
2018-08-23T01:14:55.387Z,8.17
2018-08-23T01:17:24.104Z,8.97
2018-08-23T01:20:00.549Z,10.77
2018-08-23T01:22:29.656Z,7.37
2018-08-23T01:25:00.644Z,7.73
2018-08-23T01:27:34.699Z,8.00
2018-08-23T01:30:05.651Z,8.23
2018-08-23T01:32:34.252Z,8.77
2018-08-23T01:35:02.669Z,7.83
2018-08-23T01:37:38.161Z,7.73
2018-08-23T01:40:09.043Z,8.53
2018-08-23T01:42:40.360Z,6.60
2018-08-23T01:45:10.849Z,7.27
2018-08-23T01:47:44.209Z,7.17
2018-08-23T01:50:14.871Z,8.07
2018-08-23T01:52:44.563Z,7.77
2018-08-23T01:55:16.332Z,7.10
2018-08-23T01:57:45.552Z,8.57
2018-08-23T02:00:23.475Z,8.63
2018-08-23T02:02:54.231Z,10.27
2018-08-23T02:05:24.119Z,7.20
2018-08-23T02:07:53.051Z,7.87
2018-08-23T02:10:22.489Z,7.07
2018-08-23T02:12:54.599Z,8.10
2018-08-23T02:15:24.055Z,6.83
2018-08-23T02:17:56.360Z,6.77
2018-08-23T02:20:27.200Z,7.77
2018-08-23T02:22:56.730Z,6.93
2018-08-23T02:25:25.413Z,10.67
2018-08-23T02:28:03.175Z,6.70
2018-08-23T02:30:53.025Z,8.00
2018-08-23T02:33:21.407Z,6.67
2018-08-23T02:36:00.932Z,7.43
2018-08-23T02:38:30.279Z,7.20
2018-08-23T02:40:59.672Z,7.80
2018-08-23T02:43:28.035Z,9.80
2018-08-23T02:45:56.396Z,9.67
2018-08-23T02:48:27.033Z,9.67
2018-08-23T02:50:56.196Z,7.77
2018-08-23T02:53:41.992Z,7.60
2018-08-23T02:56:21.136Z,7.73
2018-08-23T02:58:59.572Z,7.23
2018-08-23T03:01:33.468Z,7.40
2018-08-23T03:04:21.227Z,7.70
2018-08-23T03:06:53.570Z,7.23
2018-08-23T03:09:24.787Z,8.67
2018-08-23T03:11:54.651Z,8.83
2018-08-23T03:14:28.964Z,6.97
2018-08-23T03:17:22.033Z,7.07
2018-08-23T03:20:06.522Z,7.20
2018-08-23T03:22:36.632Z,6.77
2018-08-23T03:25:08.739Z,7.63
2018-08-23T03:27:37.718Z,7.40
2018-08-23T03:30:07.884Z,8.10
2018-08-23T03:32:36.315Z,11.03
2018-08-23T03:35:06.419Z,7.97
2018-08-23T03:37:36.284Z,9.97
2018-08-23T03:40:05.771Z,7.83
2018-08-23T03:42:41.024Z,7.57
2018-08-23T03:45:17.152Z,7.50
2018-08-23T03:47:52.740Z,8.43
2018-08-23T03:50:22.032Z,6.83
2018-08-23T03:52:55.226Z,7.37
2018-08-23T03:55:26.580Z,8.37
2018-08-23T03:58:01.617Z,7.97
2018-08-23T04:00:35.208Z,9.80
2018-08-23T04:03:10.164Z,9.67
2018-08-23T04:05:40.514Z,7.23
2018-08-23T04:08:09.116Z,8.47
2018-08-23T04:10:38.280Z,8.80
2018-08-23T04:13:07.624Z,7.67
2018-08-23T04:15:36.604Z,7.40
2018-08-23T04:18:17.133Z,12.90
2018-08-23T04:20:53.901Z,10.93
2018-08-23T04:23:22.205Z,10.47
2018-08-23T04:25:50.655Z,10.67
2018-08-23T04:28:19.040Z,10.03
2018-08-23T04:30:49.037Z,14.13
2018-08-23T04:33:17.380Z,17.33
2018-08-23T04:35:46.689Z,9.93
2018-08-23T04:38:18.753Z,9.67
2018-08-23T04:40:57.024Z,7.60
2018-08-23T04:43:26.179Z,9.40
2018-08-23T04:45:55.608Z,9.73
2018-08-23T04:48:24.479Z,8.33
2018-08-23T04:50:53.357Z,12.83
2018-08-23T04:53:23.020Z,8.10
2018-08-23T04:55:54.001Z,8.20
2018-08-23T04:58:23.631Z,10.13
2018-08-23T05:00:55.036Z,9.90
2018-08-23T05:03:24.839Z,9.27
2018-08-23T05:05:54.951Z,10.20
2018-08-23T05:08:23.840Z,13.17
2018-08-23T05:10:52.808Z,10.43
2018-08-23T05:13:22.179Z,9.77
2018-08-23T05:15:52.017Z,9.80
2018-08-23T05:18:21.592Z,9.00
2018-08-23T05:20:50.525Z,8.37
2018-08-23T05:23:21.021Z,9.13
2018-08-23T05:25:50.754Z,9.53
2018-08-23T05:28:20.898Z,8.00
2018-08-23T05:30:51.243Z,8.60
2018-08-23T05:33:21.748Z,9.53
2018-08-23T05:35:52.251Z,7.73
2018-08-23T05:38:21.816Z,11.13
2018-08-23T05:41:03.784Z,8.80
2018-08-23T05:43:35.774Z,11.50
2018-08-23T05:46:05.523Z,7.70
2018-08-23T05:48:34.641Z,9.33
2018-08-23T05:51:10.950Z,13.77
2018-08-23T05:53:43.775Z,8.93
2018-08-23T05:56:13.912Z,8.90
2018-08-23T05:58:47.540Z,11.20
2018-08-23T06:01:17.866Z,9.63
2018-08-23T06:03:46.752Z,8.83
2018-08-23T06:06:15.224Z,10.97
2018-08-23T06:08:50.969Z,10.57
2018-08-23T06:11:21.565Z,9.60
2018-08-23T06:13:51.933Z,10.07
2018-08-23T06:16:22.708Z,12.83
2018-08-23T06:18:54.345Z,8.27
2018-08-23T06:21:22.988Z,12.00
2018-08-23T06:24:01.520Z,11.20
2018-08-23T06:26:42.816Z,14.27
2018-08-23T06:29:22.581Z,10.13
2018-08-23T06:32:00.572Z,11.37
2018-08-23T06:34:34.837Z,9.70
2018-08-23T06:37:08.772Z,11.43
2018-08-23T06:39:39.128Z,14.63
2018-08-23T06:42:08.896Z,10.10
2018-08-23T06:44:44.795Z,10.43
2018-08-23T06:47:15.733Z,13.27
2018-08-23T06:49:45.137Z,12.47
2018-08-23T06:52:16.144Z,12.80
2018-08-23T06:54:46.781Z,18.83
2018-08-23T06:57:16.366Z,11.37
2018-08-23T06:59:46.928Z,9.63
2018-08-23T07:02:15.248Z,12.43
2018-08-23T07:04:45.812Z,11.33
2018-08-23T07:07:18.103Z,11.80
2018-08-23T07:09:48.279Z,10.97
2018-08-23T07:12:19.015Z,11.73
2018-08-23T07:14:49.317Z,14.63
2018-08-23T07:17:23.318Z,13.00
2018-08-23T07:19:53.172Z,11.23
2018-08-23T07:22:25.137Z,15.47
2018-08-23T07:24:58.376Z,13.00
2018-08-23T07:27:30.884Z,11.67
2018-08-23T07:30:00.691Z,16.33
2018-08-23T07:32:30.896Z,13.13
2018-08-23T07:35:09.644Z,11.40
2018-08-23T07:37:40.360Z,12.27
2018-08-23T07:40:16.137Z,12.57
2018-08-23T07:42:49.300Z,15.60
2018-08-23T07:45:17.680Z,14.40
2018-08-23T07:47:53.378Z,10.03
2018-08-23T07:50:21.744Z,13.70
2018-08-23T07:52:53.025Z,14.30
2018-08-23T07:55:22.060Z,13.03
2018-08-23T07:57:50.400Z,12.23
2018-08-23T08:00:47.048Z,13.13
2018-08-23T08:03:20.112Z,14.43
2018-08-23T08:05:49.713Z,10.07
2018-08-23T08:08:18.976Z,11.43
2018-08-23T08:10:48.044Z,11.17
2018-08-23T08:13:16.645Z,11.83
2018-08-23T08:15:46.546Z,12.03
2018-08-23T08:18:22.716Z,11.40
2018-08-23T08:20:58.854Z,12.10
2018-08-23T08:23:29.784Z,15.47
2018-08-23T08:25:59.753Z,12.60
2018-08-23T08:28:29.665Z,14.40
2018-08-23T08:30:59.786Z,13.25
2018-08-23T08:33:35.806Z,12.03
2018-08-23T08:36:06.918Z,15.93
2018-08-23T08:38:37.266Z,10.13
2018-08-23T08:41:08.623Z,13.17
2018-08-23T08:43:38.839Z,11.87
2018-08-23T08:46:07.912Z,12.67
2018-08-23T08:48:37.034Z,11.33
2018-08-23T08:51:26.304Z,12.00
2018-08-23T08:53:58.244Z,13.87
2018-08-23T08:56:39.426Z,12.37
2018-08-23T08:59:10.133Z,7.60
2018-08-23T09:01:38.781Z,10.37
2018-08-23T09:04:07.705Z,6.40
2018-08-23T09:06:42.763Z,8.30
2018-08-23T09:09:24.095Z,6.25
2018-08-23T09:11:53.485Z,6.20
2018-08-23T09:14:23.004Z,11.65
2018-08-23T09:16:52.765Z,9.37
2018-08-23T09:19:22.067Z,4.83
2018-08-23T09:22:01.919Z,4.83
2018-08-23T09:24:30.538Z,4.50
2018-08-23T09:26:58.896Z,4.37
2018-08-23T09:29:37.442Z,6.00
2018-08-23T09:32:21.200Z,5.17
2018-08-23T09:34:50.284Z,5.20
2018-08-23T09:37:19.067Z,6.33
2018-08-23T09:39:49.094Z,5.67
2018-08-23T09:42:20.453Z,6.63
2018-08-23T09:45:01.254Z,6.40
2018-08-23T09:47:31.128Z,10.57
2018-08-23T09:50:00.635Z,4.37
2018-08-23T09:52:35.061Z,9.93
2018-08-23T09:55:04.656Z,8.87
2018-08-23T09:57:33.764Z,6.70
2018-08-23T10:00:02.084Z,4.43
2018-08-23T10:02:39.260Z,6.77
2018-08-23T10:05:13.144Z,4.77
2018-08-23T10:07:46.945Z,5.60
2018-08-23T10:10:22.489Z,4.40
2018-08-23T10:12:57.219Z,12.90
2018-08-23T10:15:30.665Z,3.75
2018-08-23T10:18:05.695Z,4.20
2018-08-23T10:20:49.227Z,4.53
2018-08-23T10:23:23.592Z,4.57
2018-08-23T10:25:54.040Z,4.00
2018-08-23T10:28:28.711Z,4.03
2018-08-23T10:30:59.001Z,4.00
2018-08-23T10:33:27.809Z,6.12
2018-08-23T10:35:57.870Z,4.03
2018-08-23T10:38:29.108Z,3.15
2018-08-23T10:41:02.672Z,3.75
2018-08-23T10:43:38.721Z,4.00
2018-08-23T10:46:07.832Z,6.85
2018-08-23T10:48:38.820Z,4.55
2018-08-23T10:51:07.182Z,4.45
2018-08-23T10:53:36.378Z,3.87
2018-08-23T10:56:05.331Z,6.08
2018-08-23T10:58:35.527Z,4.60
2018-08-23T11:01:04.837Z,4.97
2018-08-23T11:03:34.408Z,4.50
2018-08-23T11:06:03.166Z,5.12
2018-08-23T11:08:34.744Z,5.80
2018-08-23T11:11:09.301Z,4.20
2018-08-23T11:13:46.447Z,3.42
2018-08-23T11:16:21.603Z,4.22
2018-08-23T11:18:56.397Z,4.35
2018-08-23T11:21:25.780Z,3.90
2018-08-23T11:23:59.106Z,3.98
2018-08-23T11:26:29.331Z,3.20
2018-08-23T11:29:00.089Z,3.33
2018-08-23T11:31:31.950Z,4.92
2018-08-23T11:34:02.176Z,4.40
2018-08-23T11:36:32.067Z,3.87
2018-08-23T11:39:01.569Z,4.75
2018-08-23T11:41:29.925Z,4.33
2018-08-23T11:44:02.495Z,3.10
2018-08-23T11:46:30.897Z,3.42
2018-08-23T11:49:02.011Z,4.45
2018-08-23T11:51:36.444Z,3.52
2018-08-23T11:54:05.767Z,2.50
2018-08-23T11:56:35.142Z,2.85
2018-08-23T11:59:03.885Z,5.83
2018-08-23T12:01:33.261Z,3.83
2018-08-23T12:04:04.611Z,3.95
2018-08-23T12:06:35.176Z,3.80
2018-08-23T12:09:05.704Z,5.33
2018-08-23T12:11:34.887Z,3.92
2018-08-23T12:14:03.762Z,2.52
2018-08-23T12:16:34.444Z,3.45
2018-08-23T12:19:05.069Z,5.75
2018-08-23T12:21:35.452Z,3.62
2018-08-23T12:24:05.269Z,3.60
2018-08-23T12:26:34.581Z,4.10
2018-08-23T12:29:09.792Z,2.95
2018-08-23T12:31:38.823Z,6.00
2018-08-23T12:34:09.460Z,3.65
2018-08-23T12:36:43.956Z,4.87
2018-08-23T12:39:18.087Z,3.72
2018-08-23T12:41:52.560Z,4.75
2018-08-23T12:44:22.404Z,4.05
2018-08-23T12:46:56.424Z,3.08
2018-08-23T12:49:26.991Z,3.30
2018-08-23T12:51:55.265Z,4.03
2018-08-23T12:54:24.916Z,3.65
2018-08-23T12:56:53.908Z,3.98
2018-08-23T12:59:23.124Z,7.00
2018-08-23T13:01:52.499Z,3.37
2018-08-23T13:04:22.942Z,4.35
2018-08-23T13:06:52.932Z,4.87
2018-08-23T13:09:23.000Z,4.78
2018-08-23T13:11:56.830Z,3.60
2018-08-23T13:14:26.425Z,4.00
2018-08-23T13:16:58.655Z,6.12
2018-08-23T13:19:27.409Z,5.92
2018-08-23T13:22:03.332Z,4.92
2018-08-23T13:24:35.175Z,3.47
2018-08-23T13:27:06.389Z,3.45
2018-08-23T13:29:35.384Z,6.12
2018-08-23T13:32:03.947Z,4.08
2018-08-23T13:34:34.543Z,6.22
2018-08-23T13:37:06.616Z,3.22
2018-08-23T13:39:36.168Z,5.85
2018-08-23T13:42:05.114Z,5.90
2018-08-23T13:44:39.044Z,3.70
2018-08-23T13:47:10.401Z,3.65
2018-08-23T13:49:39.999Z,3.15
2018-08-23T13:52:10.137Z,3.20
2018-08-23T13:54:42.359Z,3.70
2018-08-23T13:57:13.452Z,3.85
2018-08-23T13:59:42.792Z,3.65
2018-08-23T14:02:11.870Z,3.95
2018-08-23T14:04:44.121Z,6.50
2018-08-23T14:07:15.793Z,3.30
2018-08-23T14:09:44.752Z,5.53
2018-08-23T14:12:17.569Z,4.75
2018-08-23T14:14:46.772Z,3.67
2018-08-23T14:17:15.631Z,4.65
2018-08-23T14:19:45.204Z,4.58
2018-08-23T14:22:13.874Z,3.70
2018-08-23T14:24:42.244Z,4.30
2018-08-23T14:27:11.812Z,3.77
2018-08-23T14:29:41.604Z,3.85
2018-08-23T14:32:13.004Z,5.53
2018-08-23T14:34:43.912Z,3.30
2018-08-23T14:37:14.684Z,4.67
2018-08-23T14:39:43.521Z,4.63
2018-08-23T14:42:12.640Z,5.60
2018-08-23T14:44:42.762Z,5.87
2018-08-23T14:47:16.237Z,3.60
2018-08-23T14:49:46.011Z,3.67
2018-08-23T14:52:14.581Z,4.00
2018-08-23T14:54:44.088Z,4.80
2018-08-23T14:57:18.640Z,4.25
2018-08-23T14:59:48.102Z,3.77
2018-08-23T15:02:19.343Z,3.70
2018-08-23T15:04:49.975Z,3.15
2018-08-23T15:07:23.047Z,3.60
2018-08-23T15:09:52.705Z,4.33
2018-08-23T15:12:22.851Z,4.55
2018-08-23T15:14:52.696Z,3.50
2018-08-23T15:17:22.060Z,3.83
2018-08-23T15:19:50.752Z,3.60
2018-08-23T15:22:19.156Z,4.63
2018-08-23T15:24:49.464Z,3.27
2018-08-23T15:27:19.391Z,3.40
2018-08-23T15:29:49.821Z,4.20
2018-08-23T15:32:19.680Z,8.70
2018-08-23T15:34:49.275Z,4.00
2018-08-23T15:37:19.780Z,3.03
2018-08-23T15:39:49.813Z,6.90
2018-08-23T15:42:18.747Z,3.70
2018-08-23T15:44:48.232Z,3.73
2018-08-23T15:47:16.577Z,5.80
2018-08-23T15:49:45.009Z,16.87
2018-08-23T15:52:14.888Z,5.07
2018-08-23T15:54:44.081Z,3.77
2018-08-23T15:57:15.918Z,4.03
2018-08-23T15:59:45.465Z,5.53
2018-08-23T16:02:15.318Z,5.50
2018-08-23T16:04:45.146Z,3.60
2018-08-23T16:07:13.924Z,4.47
2018-08-23T16:09:44.187Z,3.37
2018-08-23T16:12:14.057Z,3.83
2018-08-23T16:14:43.389Z,4.57
2018-08-23T16:17:18.506Z,3.77
2018-08-23T16:19:53.048Z,3.93
2018-08-23T16:22:21.412Z,3.73
2018-08-23T16:24:50.752Z,6.47
2018-08-23T16:27:21.136Z,3.73
2018-08-23T16:31:26.707Z,5.57
2018-08-23T16:33:57.408Z,4.03
2018-08-23T16:36:29.025Z,4.60
2018-08-23T16:38:58.220Z,7.50
2018-08-23T16:41:27.352Z,9.63
2018-08-23T16:43:56.733Z,10.73
2018-08-23T16:46:25.259Z,10.63
2018-08-23T16:48:53.576Z,8.97
2018-08-23T16:51:21.933Z,7.37
2018-08-23T16:53:51.077Z,3.40
2018-08-23T16:56:19.721Z,8.03
2018-08-23T16:58:48.072Z,7.10
2018-08-23T17:01:17.078Z,5.20
2018-08-23T17:03:49.554Z,6.47
2018-08-23T17:06:19.608Z,9.83
2018-08-23T17:08:48.124Z,6.63
2018-08-23T17:11:16.566Z,7.03
2018-08-23T17:13:44.908Z,8.63
2018-08-23T17:16:19.548Z,7.77
2018-08-23T17:18:48.174Z,8.07
2018-08-23T17:21:17.815Z,9.80
2018-08-23T17:23:47.374Z,8.27
2018-08-23T17:26:15.879Z,5.67
2018-08-23T17:28:46.181Z,8.20
2018-08-23T17:31:14.622Z,7.73
2018-08-23T17:33:45.504Z,8.90
2018-08-23T17:36:16.405Z,6.67
2018-08-23T17:38:47.027Z,9.87
2018-08-23T17:41:15.348Z,10.07
2018-08-23T17:43:45.831Z,7.17
2018-08-23T17:46:15.386Z,8.33
2018-08-23T17:48:44.640Z,9.27
2018-08-23T17:51:13.154Z,8.23
2018-08-23T17:53:41.641Z,8.23
2018-08-23T17:56:09.985Z,5.80
2018-08-23T17:58:41.661Z,10.10
2018-08-23T18:01:10.973Z,10.63
2018-08-23T18:03:45.314Z,5.03
2018-08-23T18:06:13.791Z,7.03
2018-08-23T18:08:43.508Z,4.77
2018-08-23T18:11:12.139Z,8.63
2018-08-23T18:13:41.298Z,7.37
2018-08-23T18:16:15.013Z,7.17
2018-08-23T18:18:46.329Z,7.10
2018-08-23T18:21:15.025Z,4.80
2018-08-23T18:23:43.450Z,5.23
2018-08-23T18:26:13.065Z,8.13
2018-08-23T18:28:42.747Z,6.47
2018-08-23T18:31:12.244Z,7.63
2018-08-23T18:33:40.592Z,8.47
2018-08-23T18:36:09.228Z,8.53
2018-08-23T18:38:37.675Z,7.03
2018-08-23T18:41:06.467Z,8.20
2018-08-23T18:43:35.071Z,8.57
2018-08-23T18:46:03.447Z,7.57
2018-08-23T18:48:32.637Z,9.37
2018-08-23T18:51:00.982Z,6.27
2018-08-23T18:53:29.437Z,7.93
2018-08-23T18:55:58.973Z,4.83
2018-08-23T18:58:28.460Z,7.97
2018-08-23T19:00:57.556Z,6.83
2018-08-23T19:03:26.716Z,9.97
2018-08-23T19:05:56.191Z,11.10
2018-08-23T19:08:25.124Z,10.07
2018-08-23T19:10:54.200Z,8.37
2018-08-23T19:13:25.610Z,7.90
2018-08-23T19:20:14.193Z,9.67
2018-08-23T19:22:43.691Z,7.77
2018-08-23T19:25:15.873Z,9.80
2018-08-23T19:27:44.188Z,8.93
2018-08-23T19:30:13.210Z,7.43
2018-08-23T19:32:42.705Z,6.97
2018-08-23T19:35:11.481Z,8.67
2018-08-23T19:37:41.492Z,7.10
2018-08-23T19:40:10.218Z,10.70
2018-08-23T19:42:39.320Z,8.43
2018-08-23T19:45:08.377Z,6.67
2018-08-23T19:47:41.897Z,6.13
2018-08-23T19:50:11.095Z,9.87
2018-08-23T19:52:39.708Z,7.47
2018-08-23T19:55:09.848Z,7.13
2018-08-23T19:57:38.799Z,7.77
2018-08-23T20:00:09.043Z,7.90
2018-08-23T20:02:38.084Z,8.93
2018-08-23T20:05:06.587Z,6.97
2018-08-23T20:07:36.645Z,7.43
2018-08-23T20:10:05.436Z,10.53
2018-08-23T20:12:34.255Z,7.07
2018-08-23T20:15:02.593Z,9.97
2018-08-23T20:17:31.251Z,8.67
2018-08-23T20:20:00.263Z,9.80
2018-08-23T20:22:29.667Z,8.50
2018-08-23T20:24:58.523Z,6.43
2018-08-23T20:27:28.211Z,8.03
2018-08-23T20:29:58.007Z,9.97
2018-08-23T20:32:26.435Z,7.90
2018-08-23T20:34:55.296Z,10.37
2018-08-23T20:37:23.638Z,10.73
2018-08-23T20:39:52.399Z,9.10
2018-08-23T20:42:20.962Z,7.90
2018-08-23T20:44:49.815Z,7.20
2018-08-23T20:47:18.141Z,6.63
2018-08-23T20:49:47.384Z,9.97
2018-08-23T20:52:16.164Z,6.53
2018-08-23T20:54:46.307Z,12.07
2018-08-23T20:57:16.206Z,6.40
2018-08-23T20:59:45.593Z,8.93
2018-08-23T21:02:14.595Z,6.70
2018-08-23T21:04:43.547Z,7.67
2018-08-23T21:07:12.459Z,6.80
2018-08-23T21:09:40.829Z,8.73
2018-08-23T21:12:11.800Z,10.77
2018-08-23T21:14:40.106Z,7.53
2018-08-23T21:17:10.515Z,10.80
2018-08-23T21:19:38.876Z,8.47
2018-08-23T21:22:07.848Z,7.43
2018-08-23T21:24:36.770Z,6.90
2018-08-23T21:27:05.552Z,8.07
2018-08-23T21:29:38.601Z,7.67
2018-08-23T21:32:06.948Z,9.60
2018-08-23T21:34:36.913Z,8.30
2018-08-23T21:37:05.888Z,8.37
2018-08-23T21:39:35.750Z,7.57
2018-08-23T21:42:04.735Z,8.77
2018-08-23T21:44:34.059Z,10.23
2018-08-23T21:47:03.007Z,7.20
2018-08-23T21:49:32.710Z,11.13
2018-08-23T21:52:03.273Z,9.50
2018-08-23T21:54:32.284Z,8.67
2018-08-23T21:57:00.669Z,8.70
2018-08-23T21:59:28.998Z,8.80
2018-08-23T22:02:03.268Z,8.23
2018-08-23T22:04:36.296Z,8.43
2018-08-23T22:07:05.408Z,7.43
2018-08-23T22:09:34.259Z,7.43
2018-08-23T22:12:02.987Z,12.93
2018-08-23T22:14:31.852Z,6.03
2018-08-23T22:17:00.893Z,8.20
2018-08-23T22:19:30.016Z,7.13
2018-08-23T22:21:58.379Z,5.80
2018-08-23T22:24:28.167Z,4.90
2018-08-23T22:26:56.601Z,5.43
2018-08-23T22:29:25.150Z,5.50
2018-08-23T22:31:54.100Z,7.33
2018-08-23T22:34:22.464Z,6.57
2018-08-23T22:36:51.609Z,6.10
2018-08-23T22:39:19.917Z,6.23
2018-08-23T22:41:49.884Z,6.63
2018-08-23T22:44:20.054Z,6.20
2018-08-23T22:46:48.348Z,6.07
2018-08-23T22:49:17.391Z,6.30
2018-08-23T22:51:45.745Z,7.00
2018-08-23T22:54:14.836Z,9.40
2018-08-23T22:56:43.508Z,7.00
2018-08-23T22:59:12.736Z,7.30
2018-08-23T23:01:41.642Z,7.33
2018-08-23T23:04:17.093Z,10.90
2018-08-23T23:06:47.943Z,7.80
2018-08-23T23:09:17.256Z,6.80
2018-08-23T23:11:45.708Z,8.33
2018-08-23T23:14:14.101Z,7.27
2018-08-23T23:16:43.082Z,9.93
2018-08-23T23:19:12.337Z,7.57
2018-08-23T23:21:40.656Z,8.43
2018-08-23T23:24:14.176Z,8.80
2018-08-23T23:26:43.199Z,8.47
2018-08-23T23:29:11.552Z,10.50
2018-08-23T23:31:39.869Z,8.57
2018-08-23T23:34:08.224Z,8.43
2018-08-23T23:36:36.568Z,9.90
2018-08-23T23:39:06.764Z,10.77
2018-08-23T23:41:35.083Z,9.03
2018-08-23T23:44:04.285Z,10.50
2018-08-23T23:46:33.550Z,11.17
2018-08-23T23:49:02.207Z,9.20
2018-08-23T23:51:31.364Z,9.20
2018-08-23T23:53:59.850Z,8.50
2018-08-23T23:56:30.262Z,7.87
2018-08-23T23:59:00.762Z,11.13
